Villa Atuel, Argentina
Current Conditions -  °F | °C
As of 9:00 AM on Sunday 25 Jan 2015 (Local Time) from SAME Reporting Station
Scattered Clouds Scattered Clouds  
Wind Chill: 81°   Ceiling: Unl
Heat Index: 81°   Visibility: 6mi
Dew Point: 57°   Wind: 13mph
Humidity: 45%   Direction: 160°SSE
Pressure: 29.91"   Gusts: NA
Location:  34.83°S, 67.92°W
Report Text: SAME 251200Z 16011KT 9999 FEW045CB SCT050TCU27/14 Q1013
Loading
Personal Weather Stations






























Interactive Weather Map New forecast layout! Learn more

10-Day Weather Forecast

Advertisements
Track Severe Weather on mobile